createdAt,value
2023-04-15T00:01:12.325Z,8.90
2023-04-15T00:03:40.349Z,8.76
2023-04-15T00:06:07.798Z,8.46
2023-04-15T00:08:35.129Z,8.66
2023-04-15T00:11:05.756Z,8.79
2023-04-15T00:13:34.205Z,8.67
2023-04-15T00:16:02.347Z,8.49
2023-04-15T00:18:30.100Z,8.57
2023-04-15T00:20:57.500Z,8.64
2023-04-15T00:23:25.067Z,8.81
2023-04-15T00:25:52.477Z,8.80
2023-04-15T00:28:20.083Z,8.86
2023-04-15T00:30:48.014Z,8.94
2023-04-15T00:33:19.283Z,8.86
2023-04-15T00:35:47.418Z,8.91
2023-04-15T00:38:14.658Z,8.89
2023-04-15T00:40:43.645Z,8.78
2023-04-15T00:43:10.878Z,8.67
2023-04-15T00:45:38.701Z,8.59
2023-04-15T00:48:06.298Z,8.55
2023-04-15T00:50:34.365Z,8.60
2023-04-15T00:53:01.778Z,8.78
2023-04-15T00:55:29.073Z,8.74
2023-04-15T00:57:58.080Z,8.75
2023-04-15T01:00:25.558Z,8.77
2023-04-15T01:02:53.196Z,8.68
2023-04-15T01:05:20.687Z,8.66
2023-04-15T01:07:48.939Z,8.58
2023-04-15T01:10:16.334Z,8.58
2023-04-15T01:12:44.714Z,8.71
2023-04-15T01:15:12.241Z,8.59
2023-04-15T01:17:39.977Z,8.26
2023-04-15T01:20:10.554Z,8.05
2023-04-15T01:22:38.601Z,7.85
2023-04-15T01:25:19.845Z,7.65
2023-04-15T01:27:47.704Z,7.56
2023-04-15T01:30:16.355Z,7.33
2023-04-15T01:32:43.527Z,7.39
2023-04-15T01:35:10.781Z,7.44
2023-04-15T01:37:38.268Z,7.41
2023-04-15T01:40:06.613Z,7.36
2023-04-15T01:42:36.569Z,7.29
2023-04-15T01:45:04.598Z,7.33
2023-04-15T01:47:32.224Z,7.33
2023-04-15T01:49:59.487Z,7.04
2023-04-15T01:52:26.740Z,6.83
2023-04-15T01:54:53.896Z,6.97
2023-04-15T01:57:21.164Z,6.74
2023-04-15T01:59:48.495Z,6.62
2023-04-15T02:02:16.299Z,6.57
2023-04-15T02:04:43.517Z,6.51
2023-04-15T02:07:10.786Z,6.67
2023-04-15T02:09:38.706Z,6.72
2023-04-15T02:12:08.692Z,6.72
2023-04-15T02:14:36.054Z,6.54
2023-04-15T02:17:07.432Z,6.55
2023-04-15T02:19:35.821Z,6.68
2023-04-15T02:22:04.297Z,6.78
2023-04-15T02:24:31.706Z,6.86
2023-04-15T02:26:58.962Z,6.94
2023-04-15T02:29:26.320Z,7.14
2023-04-15T02:31:53.600Z,7.03
2023-04-15T02:34:20.888Z,7.26
2023-04-15T02:36:49.744Z,7.19
2023-04-15T02:39:18.658Z,7.32
2023-04-15T02:41:51.846Z,7.05
2023-04-15T02:44:20.578Z,6.83
2023-04-15T02:46:52.567Z,6.61
2023-04-15T02:49:23.047Z,6.52
2023-04-15T02:51:51.334Z,6.45
2023-04-15T02:54:22.917Z,6.34
2023-04-15T02:56:50.873Z,6.45
2023-04-15T02:59:18.129Z,6.47
2023-04-15T03:01:45.750Z,6.75
2023-04-15T03:04:14.465Z,6.73
2023-04-15T03:06:41.815Z,6.71
2023-04-15T03:09:10.394Z,6.60
2023-04-15T03:11:41.088Z,6.70
2023-04-15T03:14:10.094Z,6.54
2023-04-15T03:16:41.774Z,6.53
2023-04-15T03:19:09.127Z,6.47
2023-04-15T03:21:37.702Z,6.40
2023-04-15T03:24:05.189Z,6.36
2023-04-15T03:26:32.951Z,6.14
2023-04-15T03:29:03.148Z,6.24
2023-04-15T03:31:30.630Z,6.12
2023-04-15T03:33:57.938Z,6.17
2023-04-15T03:36:25.968Z,6.09
2023-04-15T03:38:53.157Z,6.22
2023-04-15T03:41:20.426Z,6.18
2023-04-15T03:43:47.755Z,6.12
2023-04-15T03:46:15.088Z,6.24
2023-04-15T03:48:42.321Z,6.40
2023-04-15T03:51:10.030Z,6.14
2023-04-15T03:53:37.634Z,6.11
2023-04-15T03:56:05.670Z,6.15
2023-04-15T03:58:32.895Z,6.28
2023-04-15T04:01:00.486Z,6.30
2023-04-15T04:03:28.004Z,6.43
2023-04-15T04:05:55.431Z,6.44
2023-04-15T04:08:22.851Z,6.60
2023-04-15T04:10:50.265Z,6.51
2023-04-15T04:13:17.530Z,6.49
2023-04-15T04:15:44.910Z,6.35
2023-04-15T04:18:12.581Z,6.24
2023-04-15T04:20:39.868Z,6.20
2023-04-15T04:23:07.145Z,6.11
2023-04-15T04:25:34.488Z,6.16
2023-04-15T04:28:01.768Z,6.07
2023-04-15T04:30:29.004Z,6.28
2023-04-15T04:32:56.375Z,6.44
2023-04-15T04:35:23.706Z,6.57
2023-04-15T04:37:51.003Z,6.91
2023-04-15T04:40:18.413Z,7.05
2023-04-15T04:42:46.113Z,7.20
2023-04-15T04:45:13.503Z,7.40
2023-04-15T04:47:40.811Z,7.47
2023-04-15T04:50:09.314Z,7.68
2023-04-15T04:52:36.954Z,7.69
2023-04-15T04:55:04.533Z,7.59
2023-04-15T04:57:31.984Z,7.73
2023-04-15T04:59:59.318Z,7.69
2023-04-15T05:02:27.720Z,8.14
2023-04-15T05:04:55.466Z,8.72
2023-04-15T05:07:22.929Z,9.41
2023-04-15T05:09:50.314Z,10.01
2023-04-15T05:12:18.352Z,10.55
2023-04-15T05:14:46.880Z,11.18
2023-04-15T05:17:14.393Z,12.23
2023-04-15T05:19:41.555Z,13.18
2023-04-15T05:22:08.906Z,13.77
2023-04-15T05:24:36.548Z,12.53
2023-04-15T05:27:03.838Z,12.10
2023-04-15T05:29:31.348Z,12.15
2023-04-15T05:31:58.691Z,13.11
2023-04-15T05:34:26.118Z,13.48
2023-04-15T05:36:53.241Z,13.91
2023-04-15T05:39:20.920Z,13.04
2023-04-15T05:41:48.184Z,12.25
2023-04-15T05:44:15.488Z,11.96
2023-04-15T05:46:43.473Z,11.41
2023-04-15T05:49:10.960Z,11.22
2023-04-15T05:51:38.167Z,11.12
2023-04-15T05:54:05.792Z,11.12
2023-04-15T05:56:33.179Z,11.13
2023-04-15T05:59:00.677Z,11.29
2023-04-15T06:01:28.235Z,11.37
2023-04-15T06:03:55.856Z,11.85
2023-04-15T06:06:23.647Z,11.60
2023-04-15T06:08:51.038Z,12.64
2023-04-15T06:11:18.344Z,13.97
2023-04-15T06:13:45.669Z,14.88
2023-04-15T06:16:12.908Z,15.95
2023-04-15T06:18:40.451Z,17.26
2023-04-15T06:21:08.099Z,18.75
2023-04-15T06:23:37.297Z,17.46
2023-04-15T06:26:04.659Z,17.84
2023-04-15T06:28:31.896Z,19.43
2023-04-15T06:30:59.219Z,20.18
2023-04-15T06:33:26.477Z,20.86
2023-04-15T06:35:54.091Z,22.14
2023-04-15T06:38:21.530Z,22.30
2023-04-15T06:40:48.924Z,22.78
2023-04-15T06:43:16.132Z,22.87
2023-04-15T06:45:43.316Z,22.97
2023-04-15T06:48:10.498Z,22.12
2023-04-15T06:50:37.878Z,20.79
2023-04-15T06:53:05.244Z,20.39
2023-04-15T06:55:33.992Z,20.09
2023-04-15T06:58:01.296Z,21.35
2023-04-15T07:00:28.829Z,21.40
2023-04-15T07:02:56.810Z,21.79
2023-04-15T07:05:25.451Z,22.02
2023-04-15T07:07:53.116Z,23.19
2023-04-15T07:10:20.573Z,24.98
2023-04-15T07:12:50.724Z,23.41
2023-04-15T07:15:18.065Z,21.74
2023-04-15T07:17:45.423Z,18.97
2023-04-15T07:20:13.322Z,18.16
2023-04-15T07:22:40.946Z,20.71
2023-04-15T07:25:09.174Z,19.84
2023-04-15T07:27:36.795Z,18.33
2023-04-15T07:30:04.543Z,19.85
2023-04-15T07:32:31.950Z,19.91
2023-04-15T07:34:59.340Z,18.05
2023-04-15T07:37:26.608Z,18.83
2023-04-15T07:39:53.740Z,18.89
2023-04-15T07:42:21.538Z,18.92
2023-04-15T07:44:48.869Z,18.33
2023-04-15T07:47:16.277Z,18.89
2023-04-15T07:49:44.426Z,18.12
2023-04-15T07:52:11.804Z,17.40
2023-04-15T07:54:39.953Z,19.87
2023-04-15T07:57:07.972Z,22.07
2023-04-15T07:59:35.426Z,20.21
2023-04-15T08:02:03.529Z,19.67
2023-04-15T08:04:31.390Z,19.45
2023-04-15T08:06:59.102Z,18.49
2023-04-15T08:09:27.298Z,18.12
2023-04-15T08:11:54.589Z,20.16
2023-04-15T08:14:22.302Z,20.15
2023-04-15T08:16:49.507Z,19.15
2023-04-15T08:19:17.240Z,17.48
2023-04-15T08:21:44.545Z,18.71
2023-04-15T08:24:12.419Z,20.83
2023-04-15T08:26:39.607Z,22.92
2023-04-15T08:29:06.871Z,24.06
2023-04-15T08:31:34.275Z,23.77
2023-04-15T08:34:01.596Z,21.57
2023-04-15T08:36:28.842Z,24.07
2023-04-15T08:38:56.264Z,26.74
2023-04-15T08:41:26.216Z,26.94
2023-04-15T08:44:01.427Z,29.18
2023-04-15T08:46:29.541Z,29.49
2023-04-15T08:48:58.596Z,27.54
2023-04-15T08:51:27.293Z,22.94
2023-04-15T08:53:55.288Z,23.98
2023-04-15T08:56:29.690Z,25.21
2023-04-15T08:58:57.949Z,22.38
2023-04-15T09:01:25.762Z,19.95
2023-04-15T09:03:57.245Z,18.40
2023-04-15T09:06:27.208Z,23.07
2023-04-15T09:08:54.806Z,22.82
2023-04-15T09:11:22.978Z,20.82
2023-04-15T09:13:50.657Z,19.25
2023-04-15T09:16:18.783Z,17.84
2023-04-15T09:18:46.336Z,17.19
2023-04-15T09:21:16.883Z,18.97
2023-04-15T09:24:02.085Z,21.99
2023-04-15T09:26:35.095Z,23.07
2023-04-15T09:29:10.992Z,24.82
2023-04-15T09:31:38.578Z,21.73
2023-04-15T09:34:07.052Z,20.03
2023-04-15T09:36:57.508Z,19.09
2023-04-15T09:39:24.884Z,18.26
2023-04-15T09:42:08.739Z,16.92
2023-04-15T09:44:36.517Z,16.27
2023-04-15T09:47:03.881Z,19.51
2023-04-15T09:49:31.210Z,23.45
2023-04-15T09:52:06.185Z,24.85
2023-04-15T09:54:37.806Z,23.20
2023-04-15T09:57:10.484Z,21.43
2023-04-15T09:59:38.056Z,19.48
2023-04-15T10:02:07.837Z,18.56
2023-04-15T10:04:39.422Z,18.09
2023-04-15T10:07:12.285Z,17.84
2023-04-15T10:09:40.553Z,17.86
2023-04-15T10:12:08.943Z,17.58
2023-04-15T10:14:38.812Z,17.55
2023-04-15T10:17:08.430Z,17.13
2023-04-15T10:19:38.224Z,17.21
2023-04-15T10:22:07.102Z,17.23
2023-04-15T10:24:34.618Z,17.00
2023-04-15T10:27:04.677Z,16.21
2023-04-15T10:29:32.292Z,15.97
2023-04-15T10:32:01.931Z,16.35
2023-04-15T10:34:30.706Z,16.65
2023-04-15T10:37:03.697Z,17.10
2023-04-15T10:39:36.468Z,16.77
2023-04-15T10:42:08.956Z,17.63
2023-04-15T10:44:42.562Z,17.67
2023-04-15T10:47:21.713Z,17.46
2023-04-15T10:49:58.601Z,17.40
2023-04-15T10:52:28.799Z,17.56
2023-04-15T10:55:11.500Z,16.87
2023-04-15T10:57:41.421Z,16.43
2023-04-15T11:00:14.283Z,15.92
2023-04-15T11:02:47.429Z,16.40
2023-04-15T11:05:17.453Z,16.32
2023-04-15T11:07:55.784Z,16.28
2023-04-15T11:10:26.308Z,16.04
2023-04-15T11:12:58.507Z,16.00
2023-04-15T11:15:47.205Z,16.28
2023-04-15T11:18:17.111Z,16.73
2023-04-15T11:20:48.999Z,16.79
2023-04-15T11:23:19.258Z,16.86
2023-04-15T11:25:46.868Z,17.13
2023-04-15T11:28:14.508Z,17.06
2023-04-15T11:30:43.902Z,16.95
2023-04-15T11:33:12.735Z,16.43
2023-04-15T11:35:42.391Z,16.60
2023-04-15T11:38:12.693Z,16.91
2023-04-15T11:40:42.133Z,16.92
2023-04-15T11:43:11.368Z,17.26
2023-04-15T11:45:58.839Z,17.42
2023-04-15T11:48:32.199Z,17.48
2023-04-15T11:51:05.442Z,17.94
2023-04-15T11:53:48.685Z,17.95
2023-04-15T11:56:25.609Z,17.84
2023-04-15T11:58:57.223Z,17.87
2023-04-15T12:01:39.916Z,17.85
2023-04-15T12:04:14.761Z,17.18
2023-04-15T12:06:42.188Z,17.06
2023-04-15T12:09:14.704Z,17.37
2023-04-15T12:11:55.804Z,17.63
2023-04-15T12:14:32.848Z,17.28
2023-04-15T12:17:05.628Z,17.02
2023-04-15T12:19:45.617Z,16.81
2023-04-15T12:22:17.071Z,17.12
2023-04-15T12:24:48.076Z,17.40
2023-04-15T12:27:17.111Z,17.43
2023-04-15T12:29:45.079Z,17.26
2023-04-15T12:32:14.067Z,17.91
2023-04-15T12:34:51.272Z,18.59
2023-04-15T12:37:18.865Z,17.97
2023-04-15T12:39:50.190Z,18.27
2023-04-15T12:42:18.629Z,18.84
2023-04-15T12:44:46.372Z,18.70
2023-04-15T12:47:14.108Z,19.06
2023-04-15T12:49:41.554Z,18.34
2023-04-15T12:52:08.942Z,18.36
2023-04-15T12:54:36.536Z,18.08
2023-04-15T12:57:06.810Z,17.67
2023-04-15T12:59:35.488Z,17.85
2023-04-15T13:02:03.312Z,17.24
2023-04-15T13:04:31.633Z,17.96
2023-04-15T13:06:59.058Z,18.56
2023-04-15T13:09:26.455Z,18.16
2023-04-15T13:11:54.731Z,17.69
2023-04-15T13:14:22.141Z,17.51
2023-04-15T13:16:49.306Z,17.76
2023-04-15T13:19:16.545Z,17.21
2023-04-15T13:21:43.954Z,16.81
2023-04-15T13:24:11.279Z,15.82
2023-04-15T13:26:38.581Z,15.24
2023-04-15T13:29:06.015Z,15.54
2023-04-15T13:31:33.382Z,15.88
2023-04-15T13:34:00.935Z,15.40
2023-04-15T13:36:28.367Z,15.12
2023-04-15T13:38:55.826Z,15.46
2023-04-15T13:41:23.093Z,15.50
2023-04-15T13:43:50.517Z,15.32
2023-04-15T13:46:17.862Z,15.50
2023-04-15T13:48:45.341Z,15.50
2023-04-15T13:51:12.648Z,15.34
2023-04-15T13:53:40.017Z,15.34
2023-04-15T13:56:08.719Z,15.13
2023-04-15T13:58:37.995Z,15.06
2023-04-15T14:01:06.989Z,14.68
2023-04-15T14:03:38.350Z,13.76
2023-04-15T14:06:06.740Z,13.62
2023-04-15T14:08:34.111Z,13.75
2023-04-15T14:11:01.693Z,13.64
2023-04-15T14:13:29.231Z,13.57
2023-04-15T14:15:57.647Z,13.57
2023-04-15T14:18:25.357Z,13.79
2023-04-15T14:20:52.742Z,13.79
2023-04-15T14:23:20.117Z,13.69
2023-04-15T14:25:48.355Z,13.98
2023-04-15T14:28:16.195Z,14.02
2023-04-15T14:30:43.764Z,14.28
2023-04-15T14:33:11.284Z,14.56
2023-04-15T14:35:39.231Z,14.46
2023-04-15T14:38:10.500Z,14.61
2023-04-15T14:40:38.004Z,14.70
2023-04-15T14:43:05.299Z,14.68
2023-04-15T14:45:32.606Z,15.04
2023-04-15T14:48:00.343Z,15.29
2023-04-15T14:50:27.715Z,15.35
2023-04-15T14:52:54.942Z,15.45
2023-04-15T14:55:22.425Z,15.66
2023-04-15T14:57:49.756Z,15.83
2023-04-15T15:00:17.217Z,16.03
2023-04-15T15:02:44.686Z,16.36
2023-04-15T15:05:12.524Z,16.51
2023-04-15T15:07:43.294Z,16.43
2023-04-15T15:10:10.790Z,15.97
2023-04-15T15:12:38.116Z,15.90
2023-04-15T15:15:15.741Z,15.90
2023-04-15T15:17:53.886Z,15.72
2023-04-15T15:20:21.805Z,15.83
2023-04-15T15:22:49.213Z,15.54
2023-04-15T15:25:16.563Z,15.50
2023-04-15T15:27:43.900Z,15.24
2023-04-15T15:30:12.014Z,14.93
2023-04-15T15:32:41.817Z,14.56
2023-04-15T15:35:10.512Z,14.77
2023-04-15T15:37:38.453Z,14.62
2023-04-15T15:40:06.866Z,14.71
2023-04-15T15:42:34.914Z,14.57
2023-04-15T15:45:04.811Z,14.52
2023-04-15T15:47:32.179Z,14.67
2023-04-15T15:50:02.342Z,14.90
2023-04-15T15:52:31.025Z,14.90
2023-04-15T15:54:58.345Z,15.11
2023-04-15T15:57:25.748Z,15.20
2023-04-15T16:00:04.726Z,15.33
2023-04-15T16:03:04.436Z,15.80
2023-04-15T16:05:25.415Z,15.86
2023-04-15T16:07:52.797Z,15.66
2023-04-15T16:10:20.074Z,15.77
2023-04-15T16:12:47.319Z,15.38
2023-04-15T16:15:14.861Z,15.14
2023-04-15T16:17:42.245Z,15.29
2023-04-15T16:20:10.413Z,15.41
2023-04-15T16:22:38.057Z,15.13
2023-04-15T16:25:05.917Z,14.91
2023-04-15T16:27:36.431Z,14.42
2023-04-15T16:30:07.274Z,14.37
2023-04-15T16:32:34.731Z,14.39
2023-04-15T16:35:03.418Z,13.94
2023-04-15T16:37:32.974Z,13.84
2023-04-15T16:40:01.059Z,13.72
2023-04-15T16:42:28.969Z,13.71
2023-04-15T16:44:56.454Z,13.70
2023-04-15T16:47:23.784Z,13.53
2023-04-15T16:49:51.328Z,13.12
2023-04-15T16:52:18.762Z,13.14
2023-04-15T16:54:46.120Z,13.02
2023-04-15T16:57:13.419Z,12.74
2023-04-15T16:59:40.804Z,12.87
2023-04-15T17:02:13.473Z,12.83
2023-04-15T17:04:41.874Z,12.56
2023-04-15T17:07:10.666Z,12.37
2023-04-15T17:09:39.750Z,12.35
2023-04-15T17:12:07.510Z,12.13
2023-04-15T17:14:35.339Z,11.99
2023-04-15T17:17:02.695Z,12.08
2023-04-15T17:19:29.842Z,11.88
2023-04-15T17:21:58.236Z,11.92
2023-04-15T17:24:25.621Z,11.86
2023-04-15T17:26:54.336Z,11.66
2023-04-15T17:29:21.545Z,11.88
2023-04-15T17:31:48.811Z,11.83
2023-04-15T17:34:16.243Z,11.88
2023-04-15T17:36:43.703Z,11.68
2023-04-15T17:39:11.704Z,11.61
2023-04-15T17:41:38.971Z,11.49
2023-04-15T17:44:06.591Z,11.41
2023-04-15T17:46:34.206Z,11.37
2023-04-15T17:49:02.633Z,11.38
2023-04-15T17:51:30.004Z,11.37
2023-04-15T17:54:07.536Z,11.63
2023-04-15T17:56:35.403Z,11.68
2023-04-15T17:59:03.613Z,11.70
2023-04-15T18:01:30.907Z,11.71
2023-04-15T18:03:58.421Z,11.63
2023-04-15T18:06:27.296Z,11.67
2023-04-15T18:08:54.616Z,11.74
2023-04-15T18:11:22.038Z,11.61
2023-04-15T18:13:49.477Z,11.52
2023-04-15T18:16:16.692Z,11.53
2023-04-15T18:18:44.091Z,11.58
2023-04-15T18:21:13.530Z,11.62
2023-04-15T18:23:41.269Z,11.44
2023-04-15T18:26:08.581Z,11.50
2023-04-15T18:28:37.657Z,11.41
2023-04-15T18:31:05.622Z,11.07
2023-04-15T18:33:33.049Z,11.08
2023-04-15T18:36:02.544Z,11.21
2023-04-15T18:38:29.901Z,11.12
2023-04-15T18:40:57.141Z,10.91
2023-04-15T18:43:24.336Z,10.79
2023-04-15T18:45:53.121Z,10.74
2023-04-15T18:48:20.882Z,10.73
2023-04-15T18:50:49.072Z,10.58
2023-04-15T18:53:16.516Z,10.70
2023-04-15T18:55:43.759Z,10.73
2023-04-15T18:58:11.116Z,10.67
2023-04-15T19:00:41.848Z,10.68
2023-04-15T19:03:10.092Z,10.77
2023-04-15T19:05:37.675Z,10.96
2023-04-15T19:08:05.143Z,10.83
2023-04-15T19:10:34.040Z,10.87
2023-04-15T19:13:01.342Z,10.96
2023-04-15T19:15:29.411Z,10.83
2023-04-15T19:17:56.886Z,10.88
2023-04-15T19:20:24.224Z,10.79
2023-04-15T19:22:51.819Z,10.96
2023-04-15T19:25:19.262Z,10.86
2023-04-15T19:27:46.759Z,10.92
2023-04-15T19:30:14.198Z,10.84
2023-04-15T19:32:41.421Z,10.91
2023-04-15T19:35:11.371Z,10.89
2023-04-15T19:37:39.055Z,10.75
2023-04-15T19:40:07.383Z,10.60
2023-04-15T19:42:34.999Z,10.62
2023-04-15T19:45:02.316Z,10.42
2023-04-15T19:47:29.519Z,10.56
2023-04-15T19:49:56.780Z,10.58
2023-04-15T19:52:24.037Z,10.67
2023-04-15T19:54:51.344Z,10.42
2023-04-15T19:57:18.571Z,10.48
2023-04-15T19:59:45.953Z,10.68
2023-04-15T20:02:13.403Z,10.48
2023-04-15T20:04:40.868Z,10.33
2023-04-15T20:07:08.380Z,10.32
2023-04-15T20:09:35.640Z,10.27
2023-04-15T20:12:45.570Z,10.36
2023-04-15T20:14:50.275Z,10.44
2023-04-15T20:17:17.461Z,10.21
2023-04-15T20:19:44.693Z,10.20
2023-04-15T20:22:11.940Z,10.22
2023-04-15T20:24:39.336Z,10.17
2023-04-15T20:27:06.549Z,10.26
2023-04-15T20:29:33.952Z,10.13
2023-04-15T20:32:01.268Z,10.12
2023-04-15T20:34:28.516Z,9.90
2023-04-15T20:36:55.872Z,9.93
2023-04-15T20:39:23.347Z,10.09
2023-04-15T20:41:50.791Z,10.18
2023-04-15T20:44:17.995Z,10.07
2023-04-15T20:46:45.263Z,9.89
2023-04-15T20:49:12.557Z,9.94
2023-04-15T20:51:40.471Z,9.88
2023-04-15T20:54:08.021Z,9.80
2023-04-15T20:56:35.477Z,9.61
2023-04-15T20:59:03.019Z,9.59
2023-04-15T21:01:30.623Z,9.40
2023-04-15T21:03:58.968Z,9.42
2023-04-15T21:06:27.147Z,9.57
2023-04-15T21:08:54.423Z,9.54
2023-04-15T21:11:40.626Z,9.60
2023-04-15T21:14:09.249Z,9.60
2023-04-15T21:16:36.531Z,9.63
2023-04-15T21:19:03.975Z,9.53
2023-04-15T21:21:32.030Z,9.69
2023-04-15T21:23:59.870Z,9.59
2023-04-15T21:26:27.065Z,9.54
2023-04-15T21:28:54.362Z,9.45
2023-04-15T21:31:22.169Z,9.53
2023-04-15T21:33:49.625Z,9.39
2023-04-15T21:36:16.878Z,9.34
2023-04-15T21:38:44.255Z,9.30
2023-04-15T21:41:11.418Z,9.21
2023-04-15T21:43:38.994Z,9.41
2023-04-15T21:46:22.563Z,9.45
2023-04-15T21:48:53.663Z,9.37
2023-04-15T21:51:21.064Z,9.59
2023-04-15T21:53:48.531Z,9.59
2023-04-15T21:56:15.825Z,9.42
2023-04-15T21:58:43.139Z,9.44
2023-04-15T22:01:10.527Z,9.18
2023-04-15T22:03:37.902Z,9.08
2023-04-15T22:06:05.574Z,9.20
2023-04-15T22:08:38.699Z,9.19
2023-04-15T22:11:28.451Z,9.08
2023-04-15T22:13:57.429Z,9.00
2023-04-15T22:16:28.720Z,9.08
2023-04-15T22:18:56.491Z,9.06
2023-04-15T22:21:24.086Z,9.10
2023-04-15T22:23:52.311Z,9.03
2023-04-15T22:26:19.588Z,8.90
2023-04-15T22:28:46.925Z,9.07
2023-04-15T22:31:15.038Z,9.23
2023-04-15T22:33:42.480Z,9.06
2023-04-15T22:36:09.910Z,9.05
2023-04-15T22:38:37.361Z,8.99
2023-04-15T22:41:04.912Z,9.12
2023-04-15T22:43:32.292Z,8.98
2023-04-15T22:46:01.326Z,8.91
2023-04-15T22:48:28.630Z,8.82
2023-04-15T22:50:56.021Z,8.69
2023-04-15T22:53:23.360Z,8.63
2023-04-15T22:55:51.186Z,8.40
2023-04-15T22:58:18.579Z,8.08
2023-04-15T23:00:45.938Z,8.04
2023-04-15T23:03:13.336Z,8.03
2023-04-15T23:05:41.298Z,8.01
2023-04-15T23:08:08.708Z,8.14
2023-04-15T23:10:35.888Z,8.16
2023-04-15T23:13:03.147Z,8.06
2023-04-15T23:15:30.401Z,7.98
2023-04-15T23:17:57.792Z,7.87
2023-04-15T23:20:25.062Z,7.77
2023-04-15T23:22:52.292Z,7.62
2023-04-15T23:25:22.288Z,7.41
2023-04-15T23:27:49.474Z,7.32
2023-04-15T23:30:16.948Z,7.20
2023-04-15T23:32:44.207Z,7.13
2023-04-15T23:35:11.689Z,6.99
2023-04-15T23:37:38.972Z,6.89
2023-04-15T23:40:07.339Z,6.93
2023-04-15T23:42:34.590Z,6.91
2023-04-15T23:45:01.994Z,7.01
2023-04-15T23:47:29.191Z,6.84
2023-04-15T23:49:56.535Z,6.89
2023-04-15T23:52:24.072Z,7.00
2023-04-15T23:54:51.581Z,7.13
2023-04-15T23:57:18.925Z,7.02
2023-04-15T23:59:46.715Z,6.91
